Aktuální počasí v Česku a ve světě - METAR

Seznam meteostanic umístěných nejčasteji na letišti v ČR a ve světě

Vyhledat místa podle abecedy:
A B C D E F G H I J K L M N O P Q R S T U V W X Y Z

Filtrovat:

ID stanice:
a/nebo
Název místa (fulltext):
 
Místo (ID)Naposledy načteno 
Šerák (Serak) 29.07.2021 09:00 UTC Zobrazit data
Místo: Šerák
Teplota: 15 °C (pocitová: 12.2 °C)
Vítr: 4 m/s z(e) 250°
Počasí: skorojasno
Dohlednost: 55 km
Zákl. oblačnosti: 1/8 90 m
Vlhkost: 77%
Svratouch (Svratouch) 29.07.2021 09:00 UTC Zobrazit data
Místo: Svratouch
Teplota: 20 °C (pocitová: 18.8 °C)
Vítr: 5 m/s z(e) 270°
Počasí: skoro zataženo
Dohlednost: 40 km
Zákl. oblačnosti: 5/8 780 m
Vlhkost: 64%
Saipan Island (PGSN) 29.07.2021 08:54 UTC Zobrazit METAR
PGSN 290854Z 00000KT 10SM FEW025 BKN110 28/24 A2984 RMK AO2 SLP124 T02830244 53003
Salzburg (LOWS) 29.07.2021 08:50 UTC Zobrazit METAR
LOWS 290850Z VRB02KT 9999 FEW042 22/14 Q1017 NOSIG
Samara (UWWW) Zatím nenačteno  
San Andres Island (SKSP) 29.07.2021 09:00 UTC Zobrazit METAR
SKSP 290900Z 07013KT 9999 FEW016 27/23 Q1010 RMK A2984
San Jose (MRPV) 29.07.2021 00:00 UTC Zobrazit METAR
MRPV 290000Z 34003KT 9999 BKN020 22/20 A2999 NOSIG
San Juan (TJSJ) 29.07.2021 08:56 UTC Zobrazit METAR
TJSJ 290856Z 11004KT 10SM FEW065 25/23 A3001 RMK AO2 SLP160 60000 T02500228 56003
San Salvador (MSLP) 29.07.2021 08:50 UTC Zobrazit METAR
MSLP 290850Z 35005KT 9999 FEW020 SCT060 24/23 Q1009 A2981 NOSIG
Sanaa (OYSN) 08.02.2017 13:00 UTC Zobrazit METAR
OYSN 081300Z 03008KT 9999 FEW030 25/M05 Q1022
Santiago (SCEL) 29.07.2021 04:00 UTC Zobrazit METAR
SCEL 290400Z AUTO 04002KT 8000 FEW250/// 04/M07 Q1017
Santiago (LEST) 29.07.2021 09:00 UTC Zobrazit METAR
LEST 290900Z 03010KT 350V070 9999 SCT015 17/13 Q1017 NOSIG
Santo Domingo (MDHE) 08.04.2012 12:00 UTC  
Santorini (LGSR) 29.07.2021 08:50 UTC Zobrazit METAR
LGSR 290850Z 36015KT CAVOK 30/18 Q1009
Sao Tome (FPST) 29.07.2021 09:00 UTC Zobrazit METAR
FPST 290900Z 05005KT 9999 FEW025 28/23 Q1015 NOSIG
Sarajevo (LQSA) 29.07.2021 09:00 UTC Zobrazit METAR
LQSA 290900Z 27004KT 230V360 CAVOK 29/13 Q1016 NOSIG
Saratov (UWSS) 06.03.2017 17:00 UTC Zobrazit METAR
UWSS 061700Z CAVOK 04/00 Q1024 R12/190055 NOSIG RMK QFE756
Sarmellek (LHSM) 29.07.2021 08:45 UTC Zobrazit METAR
LHSM 290845Z AUTO 02007KT 280V070 CAVOK 26/14 Q1016 NOSIG
Seinajoki (EFSI) 29.07.2021 08:50 UTC Zobrazit METAR
EFSI 290850Z AUTO 08006KT 010V110 9999 FEW030 BKN041 20/17 Q0995
Seoul/Incheon (RKSI) 29.07.2021 09:00 UTC Zobrazit METAR
RKSI 290900Z 29008KT 260V330 CAVOK 30/21 Q1001 NOSIG
Seville (LEZL) 29.07.2021 09:00 UTC Zobrazit METAR
LEZL 290900Z 28004KT CAVOK 28/14 Q1013 NOSIG
Seychelles (FSIA) 29.07.2021 09:00 UTC Zobrazit METAR
FSIA 290900Z 15008KT 100V220 9999 SCT022 29/23 Q1013 NOSIG
Shymkent (UAII) Zatím nenačteno  
Siauliai (EYSA) 29.07.2021 08:50 UTC Zobrazit METAR
EYSA 290850Z 22006KT 170V280 9999 FEW025 SCT030 24/17 Q1007 BLU NOSIG
Sibiu (LRSB) 29.07.2021 09:00 UTC Zobrazit METAR
LRSB 290900Z VRB02KT 9999 FEW050 28/16 Q1015
Simferopol' (UKFF) Zatím nenačteno  
Singapore (WSSS) 29.07.2021 08:00 UTC Zobrazit METAR
WSSS 290800Z 17011KT 140V200 9999 SCT022 BKN300 32/25 Q1009 NOSIG
Skopje (LWSK) 29.07.2021 09:00 UTC Zobrazit METAR
LWSK 290900Z VRB01KT CAVOK 31/14 Q1015 NOSIG
Soderhamn (ESNY) Zatím nenačteno  
Sofia (LBSF) 29.07.2021 09:00 UTC Zobrazit METAR
LBSF 290900Z 23004KT 200V270 CAVOK 31/14 Q1017 NOSIG
Sonderborg (EKSB) 29.07.2021 02:50 UTC Zobrazit METAR
EKSB 290250Z AUTO 19008KT 160V220 9999 FEW029/// 15/14 Q1003
Split (LDSP) 29.07.2021 09:00 UTC Zobrazit METAR
LDSP 290900Z 11004KT 070V160 CAVOK 35/12 Q1013 TEMPO 23008KT
St. Denis (FMEE) 29.07.2021 09:00 UTC Zobrazit METAR
FMEE 290900Z AUTO 13020G34KT 090V150 9999 -RA FEW025 SCT031 BKN047 21/18 Q1023 BECMG 14018KT
St. Georges (TGPY) 29.07.2021 06:00 UTC Zobrazit METAR
TGPY 290600Z 08013KT 9999 VCSH SCT016 BKN035 27/24 Q1014 TEMPO SHRA ADJ SHRA-SE S TCU-ALQUAD
St. Johns (TAPA) 29.07.2021 09:00 UTC Zobrazit METAR
TAPA 290900Z 11007KT 060V160 9999 SCT016 BKN036 25/23 Q1016 NOSIG
St. Petersburg (ULLI) Zatím nenačteno  
St. Pierre Island (LFVP) 29.07.2021 09:00 UTC Zobrazit METAR
LFVP 290900Z 9000 SCT002 BKN038 14/14 Q1010 NOSIG
Stavanger (ENZV) 28.07.2021 15:50 UTC Zobrazit METAR
ENZV 281550Z 13008KT 9999 VCSH FEW015 SCT025 BKN055 18/16 Q1002
Stockholm (ESSA) 29.07.2021 08:50 UTC Zobrazit METAR
ESSA 290850Z 23011KT 9999 FEW025 21/15 Q1000 NOSIG
Strasbourg (LFST) 29.07.2021 09:00 UTC Zobrazit METAR
LFST 290900Z AUTO 25011KT 9999 BKN048 BKN054 21/11 Q1016 NOSIG
Stuttgart (EDDS) 29.07.2021 08:50 UTC Zobrazit METAR
EDDS 290850Z 26012KT 210V300 9999 FEW035 21/13 Q1016 NOSIG
Reklama

Reklama


Newslettter

Počasí na Váš email

Emaily jsou bez reklamy a bez spamu



Odhlásit newsletter



Kontaktujte nás

Kontaktujte Slunečno.cz

Kontaktujte provozovatele Slunecno.cz

Další české internetové stránky (nejen) o počasí najdete v katalogu TOPlist - weby o počasí nebo vyhledejte na internetu, co jste tu na Počasí Slunečno Slunečnu zatím nenašli:
Přidat mezzi oblíbené stránkyPřidat Slunečno.cz do oblíbených | Nastavit jako HOMEPAGENastavit Slunečno.cz jako HOMEPAGE

Posunout stránku nahoru Posunout stránku nahoru Posunout stránku nahoru
Reklama